createdAt,value
2023-04-22T00:00:53.788Z,0.50
2023-04-22T00:01:53.869Z,0.50
2023-04-22T00:02:54.030Z,0.38
2023-04-22T00:03:54.163Z,0.34
2023-04-22T00:04:54.315Z,0.34
2023-04-22T00:05:54.090Z,0.34
2023-04-22T00:06:54.060Z,0.34
2023-04-22T00:07:54.101Z,0.36
2023-04-22T00:08:54.148Z,0.38
2023-04-22T00:09:54.188Z,0.43
2023-04-22T00:10:54.218Z,0.49
2023-04-22T00:11:54.294Z,0.50
2023-04-22T00:12:54.306Z,0.50
2023-04-22T00:13:54.368Z,0.50
2023-04-22T00:14:54.389Z,0.50
2023-04-22T00:15:54.467Z,0.50
2023-04-22T00:16:54.492Z,0.50
2023-04-22T00:17:54.569Z,0.50
2023-04-22T00:18:54.585Z,0.50
2023-04-22T00:19:54.653Z,0.50
2023-04-22T00:20:54.667Z,0.50
2023-04-22T00:21:54.704Z,0.50
2023-04-22T00:22:54.747Z,0.50
2023-04-22T00:23:54.796Z,0.50
2023-04-22T00:24:54.848Z,0.50
2023-04-22T00:25:54.886Z,0.50
2023-04-22T00:26:54.927Z,0.51
2023-04-22T00:27:55.001Z,0.51
2023-04-22T00:28:55.006Z,0.50
2023-04-22T00:29:55.049Z,0.51
2023-04-22T00:30:55.142Z,0.50
2023-04-22T00:31:55.178Z,0.50
2023-04-22T00:32:55.283Z,0.50
2023-04-22T00:33:55.214Z,0.50
2023-04-22T00:34:55.250Z,0.50
2023-04-22T00:35:55.299Z,0.50
2023-04-22T00:36:55.328Z,0.50
2023-04-22T00:37:55.374Z,0.50
2023-04-22T00:38:55.405Z,0.50
2023-04-22T00:39:55.455Z,0.50
2023-04-22T00:40:55.499Z,0.51
2023-04-22T00:41:55.534Z,0.51
2023-04-22T00:42:55.584Z,0.50
2023-04-22T00:43:55.932Z,0.51
2023-04-22T00:44:55.756Z,0.50
2023-04-22T00:45:55.721Z,0.52
2023-04-22T00:46:55.859Z,0.50
2023-04-22T00:47:55.916Z,0.50
2023-04-22T00:48:55.821Z,0.51
2023-04-22T00:49:55.868Z,0.51
2023-04-22T00:50:55.899Z,0.51
2023-04-22T00:51:55.946Z,0.50
2023-04-22T00:52:55.993Z,0.51
2023-04-22T00:53:56.030Z,0.51
2023-04-22T00:54:56.076Z,0.51
2023-04-22T00:55:56.125Z,0.50
2023-04-22T00:56:56.154Z,0.50
2023-04-22T00:57:56.198Z,0.51
2023-04-22T00:58:56.244Z,0.51
2023-04-22T00:59:56.323Z,0.50
2023-04-22T01:00:56.343Z,0.50
2023-04-22T01:01:56.441Z,0.50
2023-04-22T01:02:56.575Z,0.50
2023-04-22T01:03:56.680Z,0.50
2023-04-22T01:04:56.487Z,0.51
2023-04-22T01:05:56.536Z,0.51
2023-04-22T01:06:56.580Z,0.51
2023-04-22T01:07:56.624Z,0.51
2023-04-22T01:08:56.660Z,0.51
2023-04-22T01:09:56.701Z,0.51
2023-04-22T01:10:56.749Z,0.51
2023-04-22T01:11:56.788Z,0.51
2023-04-22T01:12:56.827Z,0.51
2023-04-22T01:13:56.867Z,0.51
2023-04-22T01:14:56.910Z,0.51
2023-04-22T01:15:56.972Z,0.51
2023-04-22T01:16:57.077Z,0.52
2023-04-22T01:17:57.085Z,0.51
2023-04-22T01:18:57.089Z,0.50
2023-04-22T01:19:57.114Z,0.50
2023-04-22T01:20:57.164Z,0.50
2023-04-22T01:21:57.195Z,0.51
2023-04-22T01:22:57.240Z,0.51
2023-04-22T01:23:57.292Z,0.51
2023-04-22T01:24:57.321Z,0.50
2023-04-22T01:25:57.385Z,0.51
2023-04-22T01:26:57.416Z,0.51
2023-04-22T01:27:57.484Z,0.51
2023-04-22T01:28:57.587Z,0.51
2023-04-22T01:29:57.614Z,0.51
2023-04-22T01:30:57.698Z,0.51
2023-04-22T01:31:57.854Z,0.52
2023-04-22T01:32:57.876Z,0.50
2023-04-22T01:33:57.910Z,0.50
2023-04-22T01:34:57.942Z,0.50
2023-04-22T01:35:58.040Z,0.50
2023-04-22T01:36:58.039Z,0.50
2023-04-22T01:37:58.108Z,0.50
2023-04-22T01:38:58.179Z,0.52
2023-04-22T01:39:58.233Z,0.52
2023-04-22T01:40:58.278Z,0.51
2023-04-22T01:41:58.316Z,0.51
2023-04-22T01:42:58.361Z,0.52
2023-04-22T01:43:58.403Z,0.50
2023-04-22T01:44:58.449Z,0.51
2023-04-22T01:45:58.532Z,0.50
2023-04-22T01:46:58.543Z,0.51
2023-04-22T01:47:58.654Z,0.51
2023-04-22T01:48:58.646Z,0.51
2023-04-22T01:49:58.674Z,0.51
2023-04-22T01:50:58.733Z,0.51
2023-04-22T01:51:58.758Z,0.51
2023-04-22T01:52:58.795Z,0.50
2023-04-22T01:53:58.856Z,0.51
2023-04-22T01:54:58.898Z,0.51
2023-04-22T01:55:58.932Z,0.51
2023-04-22T01:56:58.977Z,0.50
2023-04-22T01:57:59.024Z,0.52
2023-04-22T01:58:59.068Z,0.52
2023-04-22T01:59:59.114Z,0.52
2023-04-22T02:00:59.226Z,0.50
2023-04-22T02:01:59.239Z,0.51
2023-04-22T02:02:59.304Z,0.53
2023-04-22T02:03:59.337Z,0.52
2023-04-22T02:04:59.396Z,0.52
2023-04-22T02:05:59.427Z,0.51
2023-04-22T02:06:59.457Z,0.51
2023-04-22T02:07:59.497Z,0.52
2023-04-22T02:08:59.553Z,0.51
2023-04-22T02:09:59.625Z,0.51
2023-04-22T02:10:59.682Z,0.51
2023-04-22T02:11:59.936Z,0.51
2023-04-22T02:12:59.831Z,0.50
2023-04-22T02:13:59.854Z,0.51
2023-04-22T02:14:59.909Z,0.50
2023-04-22T02:15:59.927Z,0.51
2023-04-22T02:16:59.965Z,0.51
2023-04-22T02:18:00.034Z,0.52
2023-04-22T02:19:00.128Z,0.51
2023-04-22T02:20:00.266Z,0.50
2023-04-22T02:21:00.198Z,0.50
2023-04-22T02:22:00.224Z,0.51
2023-04-22T02:23:00.266Z,0.50
2023-04-22T02:24:00.314Z,0.51
2023-04-22T02:25:00.379Z,0.51
2023-04-22T02:26:00.414Z,0.51
2023-04-22T02:27:00.490Z,0.50
2023-04-22T02:28:00.513Z,0.50
2023-04-22T02:29:00.554Z,0.50
2023-04-22T02:30:00.611Z,0.50
2023-04-22T02:31:00.709Z,0.51
2023-04-22T02:32:00.702Z,0.51
2023-04-22T02:33:00.800Z,0.50
2023-04-22T02:34:00.789Z,0.50
2023-04-22T02:35:00.838Z,0.50
2023-04-22T02:36:00.937Z,0.51
2023-04-22T02:37:00.945Z,0.51
2023-04-22T02:38:00.973Z,0.51
2023-04-22T02:39:01.024Z,0.51
2023-04-22T02:40:01.065Z,0.51
2023-04-22T02:41:01.113Z,0.51
2023-04-22T02:42:01.159Z,0.50
2023-04-22T02:43:01.211Z,0.51
2023-04-22T02:44:01.297Z,0.51
2023-04-22T02:45:01.323Z,0.50
2023-04-22T02:46:01.363Z,0.50
2023-04-22T02:47:01.591Z,0.51
2023-04-22T02:48:01.535Z,0.51
2023-04-22T02:49:01.497Z,0.50
2023-04-22T02:50:01.561Z,0.52
2023-04-22T02:51:01.597Z,0.52
2023-04-22T02:52:01.649Z,0.51
2023-04-22T02:53:01.684Z,0.51
2023-04-22T02:54:01.739Z,0.51
2023-04-22T02:55:01.776Z,0.51
2023-04-22T02:56:01.832Z,0.51
2023-04-22T02:57:01.866Z,0.51
2023-04-22T02:58:01.917Z,0.51
2023-04-22T02:59:02.007Z,0.50
2023-04-22T03:00:02.016Z,0.50
2023-04-22T03:01:02.106Z,0.50
2023-04-22T03:02:05.129Z,0.52
2023-04-22T03:03:02.243Z,0.52
2023-04-22T03:04:02.396Z,0.52
2023-04-22T03:05:02.211Z,0.52
2023-04-22T03:06:02.261Z,0.52
2023-04-22T03:07:02.297Z,0.51
2023-04-22T03:08:02.435Z,0.51
2023-04-22T03:09:02.439Z,0.52
2023-04-22T03:10:02.500Z,0.51
2023-04-22T03:11:02.605Z,0.50
2023-04-22T03:12:02.680Z,0.51
2023-04-22T03:13:02.735Z,0.51
2023-04-22T03:14:02.773Z,0.51
2023-04-22T03:15:02.831Z,0.51
2023-04-22T03:16:02.914Z,0.52
2023-04-22T03:17:03.282Z,0.52
2023-04-22T03:18:03.135Z,0.52
2023-04-22T03:19:03.094Z,0.53
2023-04-22T03:20:03.168Z,0.52
2023-04-22T03:21:03.233Z,0.52
2023-04-22T03:22:03.314Z,0.53
2023-04-22T03:23:03.379Z,0.53
2023-04-22T03:24:03.491Z,0.52
2023-04-22T03:25:03.537Z,0.52
2023-04-22T03:26:03.579Z,0.52
2023-04-22T03:27:03.659Z,0.51
2023-04-22T03:28:03.731Z,0.51
2023-04-22T03:29:03.816Z,0.51
2023-04-22T03:30:03.893Z,0.50
2023-04-22T03:31:03.931Z,0.50
2023-04-22T03:32:04.059Z,0.51
2023-04-22T03:33:04.227Z,0.51
2023-04-22T03:34:04.196Z,0.50
2023-04-22T03:35:04.237Z,0.51
2023-04-22T03:36:04.332Z,0.50
2023-04-22T03:37:04.393Z,0.51
2023-04-22T03:38:04.429Z,0.51
2023-04-22T03:39:04.494Z,0.51
2023-04-22T03:40:04.564Z,0.50
2023-04-22T03:41:04.639Z,0.51
2023-04-22T03:42:04.718Z,0.50
2023-04-22T03:43:04.791Z,0.51
2023-04-22T03:44:04.890Z,0.51
2023-04-22T03:45:04.957Z,0.51
2023-04-22T03:46:05.096Z,0.51
2023-04-22T03:47:05.140Z,0.52
2023-04-22T03:48:05.317Z,0.51
2023-04-22T03:49:05.338Z,0.52
2023-04-22T03:50:05.441Z,0.51
2023-04-22T03:51:05.572Z,0.51
2023-04-22T03:52:05.608Z,0.51
2023-04-22T03:53:05.702Z,0.51
2023-04-22T03:54:05.788Z,0.51
2023-04-22T03:55:05.891Z,0.52
2023-04-22T03:56:06.007Z,0.52
2023-04-22T03:57:06.075Z,0.52
2023-04-22T03:58:06.157Z,0.50
2023-04-22T03:59:06.244Z,0.52
2023-04-22T04:00:06.332Z,0.52
2023-04-22T04:01:06.396Z,0.52
2023-04-22T04:02:06.537Z,0.51
2023-04-22T04:03:06.637Z,0.50
2023-04-22T04:04:06.574Z,0.52
2023-04-22T04:05:06.599Z,0.51
2023-04-22T04:06:06.520Z,0.51
2023-04-22T04:07:06.548Z,0.51
2023-04-22T04:08:06.565Z,0.51
2023-04-22T04:09:06.610Z,0.51
2023-04-22T04:10:06.626Z,0.51
2023-04-22T04:11:06.660Z,0.51
2023-04-22T04:12:06.710Z,0.51
2023-04-22T04:13:06.734Z,0.51
2023-04-22T04:14:06.743Z,0.51
2023-04-22T04:15:06.770Z,0.50
2023-04-22T04:16:06.896Z,0.50
2023-04-22T04:17:06.859Z,0.51
2023-04-22T04:18:06.954Z,0.52
2023-04-22T04:19:06.964Z,0.51
2023-04-22T04:20:06.949Z,0.51
2023-04-22T04:21:06.990Z,0.52
2023-04-22T04:22:07.034Z,0.52
2023-04-22T04:23:07.051Z,0.51
2023-04-22T04:24:07.088Z,0.51
2023-04-22T04:25:07.097Z,0.51
2023-04-22T04:26:07.146Z,0.51
2023-04-22T04:27:07.145Z,0.50
2023-04-22T04:28:07.204Z,0.51
2023-04-22T04:29:07.201Z,0.51
2023-04-22T04:30:07.226Z,0.51
2023-04-22T04:31:07.281Z,0.50
2023-04-22T04:32:07.283Z,0.51
2023-04-22T04:33:07.577Z,0.52
2023-04-22T04:34:07.351Z,0.51
2023-04-22T04:35:07.341Z,0.51
2023-04-22T04:36:07.366Z,0.51
2023-04-22T04:37:07.399Z,0.51
2023-04-22T04:38:07.426Z,0.50
2023-04-22T04:39:07.460Z,0.51
2023-04-22T04:40:07.494Z,0.51
2023-04-22T04:41:07.514Z,0.50
2023-04-22T04:42:07.544Z,0.51
2023-04-22T04:43:07.591Z,0.51
2023-04-22T04:44:07.682Z,0.50
2023-04-22T04:45:07.695Z,0.50
2023-04-22T04:46:07.748Z,0.51
2023-04-22T04:47:07.743Z,0.51
2023-04-22T04:48:07.830Z,0.50
2023-04-22T04:49:07.951Z,0.51
2023-04-22T04:50:07.862Z,0.51
2023-04-22T04:51:07.925Z,0.51
2023-04-22T04:52:07.944Z,0.51
2023-04-22T04:53:07.976Z,0.51
2023-04-22T04:54:08.025Z,0.51
2023-04-22T04:55:08.087Z,0.51
2023-04-22T04:56:08.178Z,0.50
2023-04-22T04:57:08.224Z,0.52
2023-04-22T04:58:08.301Z,0.51
2023-04-22T04:59:08.371Z,0.51
2023-04-22T05:00:08.428Z,0.51
2023-04-22T05:01:08.428Z,0.50
2023-04-22T05:02:08.572Z,0.50
2023-04-22T05:03:08.648Z,0.50
2023-04-22T05:04:08.883Z,0.51
2023-04-22T05:05:08.586Z,0.52
2023-04-22T05:06:08.637Z,0.51
2023-04-22T05:07:08.671Z,0.52
2023-04-22T05:08:08.669Z,0.51
2023-04-22T05:09:08.700Z,0.50
2023-04-22T05:10:08.705Z,0.51
2023-04-22T05:11:08.721Z,0.50
2023-04-22T05:12:08.737Z,0.50
2023-04-22T05:13:08.764Z,0.50
2023-04-22T05:14:08.780Z,0.50
2023-04-22T05:15:08.808Z,0.50
2023-04-22T05:16:08.872Z,0.51
2023-04-22T05:17:08.861Z,0.52
2023-04-22T05:18:08.923Z,0.53
2023-04-22T05:19:08.950Z,0.54
2023-04-22T05:20:08.963Z,0.54
2023-04-22T05:21:08.947Z,0.55
2023-04-22T05:22:08.963Z,0.57
2023-04-22T05:23:08.990Z,0.58
2023-04-22T05:24:09.020Z,0.55
2023-04-22T05:25:09.046Z,0.54
2023-04-22T05:26:09.074Z,0.52
2023-04-22T05:27:09.108Z,0.52
2023-04-22T05:28:09.141Z,0.52
2023-04-22T05:29:09.184Z,0.52
2023-04-22T05:30:09.220Z,0.52
2023-04-22T05:31:09.264Z,0.52
2023-04-22T05:32:09.402Z,0.52
2023-04-22T05:33:09.361Z,0.51
2023-04-22T05:34:09.375Z,0.51
2023-04-22T05:35:09.417Z,0.51
2023-04-22T05:36:09.449Z,0.51
2023-04-22T05:37:09.478Z,0.53
2023-04-22T05:38:09.511Z,0.52
2023-04-22T05:39:09.554Z,0.51
2023-04-22T05:40:09.585Z,0.50
2023-04-22T05:41:09.614Z,0.50
2023-04-22T05:42:09.659Z,0.50
2023-04-22T05:43:09.692Z,0.49
2023-04-22T05:44:09.729Z,0.51
2023-04-22T05:45:09.767Z,0.51
2023-04-22T05:46:09.907Z,0.51
2023-04-22T05:47:09.854Z,0.52
2023-04-22T05:48:09.926Z,0.51
2023-04-22T05:49:09.914Z,0.51
2023-04-22T05:50:09.977Z,0.50
2023-04-22T05:51:09.994Z,0.51
2023-04-22T05:52:10.026Z,0.52
2023-04-22T05:53:10.079Z,0.51
2023-04-22T05:54:10.105Z,0.51
2023-04-22T05:55:10.161Z,0.50
2023-04-22T05:56:10.195Z,0.52
2023-04-22T05:57:10.272Z,0.51
2023-04-22T05:58:10.358Z,0.51
2023-04-22T05:59:10.436Z,0.50
2023-04-22T06:00:10.522Z,0.50
2023-04-22T06:01:10.589Z,0.50
2023-04-22T06:02:10.804Z,0.51
2023-04-22T06:03:11.013Z,0.51
2023-04-22T06:04:11.001Z,0.50
2023-04-22T06:05:11.008Z,0.51
2023-04-22T06:06:10.950Z,0.51
2023-04-22T06:07:11.001Z,0.50
2023-04-22T06:08:11.064Z,0.51
2023-04-22T06:09:11.105Z,0.50
2023-04-22T06:10:11.165Z,0.52
2023-04-22T06:11:11.202Z,0.51
2023-04-22T06:12:11.254Z,0.50
2023-04-22T06:13:11.330Z,0.51
2023-04-22T06:14:11.382Z,0.51
2023-04-22T06:15:11.430Z,0.51
2023-04-22T06:16:11.496Z,0.51
2023-04-22T06:17:11.536Z,0.53
2023-04-22T06:18:11.603Z,0.52
2023-04-22T06:19:11.641Z,0.51
2023-04-22T06:20:11.726Z,0.51
2023-04-22T06:21:11.775Z,0.51
2023-04-22T06:22:11.806Z,0.50
2023-04-22T06:23:11.850Z,0.51
2023-04-22T06:24:11.915Z,0.51
2023-04-22T06:25:11.954Z,0.51
2023-04-22T06:26:12.000Z,0.53
2023-04-22T06:27:12.032Z,0.51
2023-04-22T06:28:12.109Z,0.52
2023-04-22T06:29:12.126Z,0.50
2023-04-22T06:30:12.185Z,0.51
2023-04-22T06:31:12.267Z,0.50
2023-04-22T06:32:12.263Z,0.52
2023-04-22T06:33:12.355Z,0.51
2023-04-22T06:34:12.407Z,0.51
2023-04-22T06:35:12.442Z,0.50
2023-04-22T06:36:12.538Z,0.51
2023-04-22T06:37:12.552Z,0.52
2023-04-22T06:38:12.618Z,0.51
2023-04-22T06:39:12.672Z,0.51
2023-04-22T06:40:12.707Z,0.50
2023-04-22T06:41:12.729Z,0.51
2023-04-22T06:42:12.797Z,0.52
2023-04-22T06:43:12.866Z,0.50
2023-04-22T06:44:12.936Z,0.50
2023-04-22T06:45:13.102Z,0.52
2023-04-22T06:46:13.089Z,0.51
2023-04-22T06:47:13.103Z,0.50
2023-04-22T06:48:13.183Z,0.52
2023-04-22T06:49:13.248Z,0.51
2023-04-22T06:50:13.328Z,0.51
2023-04-22T06:51:13.405Z,0.52
2023-04-22T06:52:13.502Z,0.52
2023-04-22T06:53:13.545Z,0.50
2023-04-22T06:54:13.619Z,0.52
2023-04-22T06:55:13.691Z,0.51
2023-04-22T06:56:13.762Z,0.53
2023-04-22T06:57:13.830Z,0.54
2023-04-22T06:58:13.927Z,0.52
2023-04-22T06:59:14.011Z,0.51
2023-04-22T07:00:14.096Z,0.51
2023-04-22T07:01:14.160Z,0.51
2023-04-22T07:02:14.411Z,0.51
2023-04-22T07:03:14.352Z,0.50
2023-04-22T07:04:14.398Z,0.51
2023-04-22T07:05:14.465Z,0.50
2023-04-22T07:06:14.525Z,0.52
2023-04-22T07:07:14.625Z,0.52
2023-04-22T07:08:14.729Z,0.50
2023-04-22T07:09:14.787Z,0.51
2023-04-22T07:10:14.880Z,0.50
2023-04-22T07:11:14.951Z,0.51
2023-04-22T07:12:15.041Z,0.53
2023-04-22T07:13:15.125Z,0.52
2023-04-22T07:14:15.203Z,0.50
2023-04-22T07:15:15.298Z,0.51
2023-04-22T07:16:15.415Z,0.51
2023-04-22T07:17:15.472Z,0.52
2023-04-22T07:18:15.563Z,0.54
2023-04-22T07:19:15.649Z,0.51
2023-04-22T07:20:15.738Z,0.50
2023-04-22T07:21:15.794Z,0.50
2023-04-22T07:22:15.814Z,0.51
2023-04-22T07:23:15.851Z,0.54
2023-04-22T07:24:15.894Z,0.51
2023-04-22T07:25:15.904Z,0.52
2023-04-22T07:26:15.929Z,0.52
2023-04-22T07:27:15.951Z,0.51
2023-04-22T07:28:15.973Z,0.54
2023-04-22T07:29:15.991Z,0.53
2023-04-22T07:30:16.028Z,0.50
2023-04-22T07:31:16.053Z,0.50
2023-04-22T07:32:16.100Z,0.51
2023-04-22T07:33:16.098Z,0.50
2023-04-22T07:34:16.117Z,0.50
2023-04-22T07:35:16.142Z,0.50
2023-04-22T07:36:16.172Z,0.50
2023-04-22T07:37:16.191Z,0.56
2023-04-22T07:38:16.219Z,0.55
2023-04-22T07:39:16.249Z,0.54
2023-04-22T07:40:16.316Z,0.52
2023-04-22T07:41:16.322Z,0.52
2023-04-22T07:42:16.343Z,0.52
2023-04-22T07:43:16.372Z,0.60
2023-04-22T07:44:16.395Z,0.53
2023-04-22T07:45:16.424Z,0.54
2023-04-22T07:46:16.620Z,0.54
2023-04-22T07:47:16.476Z,0.50
2023-04-22T07:48:16.502Z,0.50
2023-04-22T07:49:16.531Z,0.51
2023-04-22T07:50:16.562Z,0.52
2023-04-22T07:51:16.595Z,0.50
2023-04-22T07:52:16.650Z,0.50
2023-04-22T07:53:16.685Z,0.56
2023-04-22T07:54:16.722Z,0.51
2023-04-22T07:55:16.734Z,0.56
2023-04-22T07:56:16.800Z,0.52
2023-04-22T07:57:16.817Z,0.57
2023-04-22T07:58:16.869Z,0.53
2023-04-22T07:59:16.911Z,0.67
2023-04-22T08:00:16.973Z,0.67
2023-04-22T08:01:19.428Z,0.65
2023-04-22T08:02:17.143Z,0.59
2023-04-22T08:03:17.433Z,0.60
2023-04-22T08:04:17.440Z,0.65
2023-04-22T08:05:17.165Z,0.64
2023-04-22T08:06:17.139Z,0.69
2023-04-22T08:07:32.617Z,0.65
2023-04-22T08:08:17.186Z,0.65
2023-04-22T08:09:17.210Z,0.59
2023-04-22T08:10:17.234Z,0.64
2023-04-22T08:11:17.261Z,0.60
2023-04-22T08:12:17.323Z,0.58
2023-04-22T08:13:18.383Z,0.50
2023-04-22T08:14:17.333Z,0.51
2023-04-22T08:15:17.405Z,0.57
2023-04-22T08:16:17.417Z,0.63
2023-04-22T08:17:17.398Z,0.62
2023-04-22T08:18:17.425Z,0.59
2023-04-22T08:19:17.498Z,0.54
2023-04-22T08:20:17.594Z,0.62
2023-04-22T08:21:17.673Z,0.59
2023-04-22T08:22:17.761Z,0.63
2023-04-22T08:23:17.844Z,0.60
2023-04-22T08:24:17.937Z,0.59
2023-04-22T08:25:18.032Z,0.58
2023-04-22T08:26:18.109Z,0.55
2023-04-22T08:27:18.183Z,0.52
2023-04-22T08:28:18.294Z,0.56
2023-04-22T08:29:18.364Z,0.52
2023-04-22T08:30:18.442Z,0.53
2023-04-22T08:31:18.565Z,0.52
2023-04-22T08:32:18.597Z,0.51
2023-04-22T08:33:18.672Z,0.50
2023-04-22T08:34:18.754Z,0.50
2023-04-22T08:35:18.825Z,0.50
2023-04-22T08:36:18.918Z,0.51
2023-04-22T08:37:19.003Z,0.52
2023-04-22T08:38:19.060Z,0.55
2023-04-22T08:39:19.135Z,0.51
2023-04-22T08:40:19.213Z,0.52
2023-04-22T08:41:19.283Z,0.51
2023-04-22T08:42:19.355Z,0.55
2023-04-22T08:43:19.430Z,0.51
2023-04-22T08:44:19.533Z,0.52
2023-04-22T08:45:19.574Z,0.54
2023-04-22T08:46:19.692Z,0.58
2023-04-22T08:47:19.721Z,0.55
2023-04-22T08:48:19.785Z,0.50
2023-04-22T08:49:19.853Z,0.50
2023-04-22T08:50:19.926Z,0.52
2023-04-22T08:51:19.991Z,0.50
2023-04-22T08:52:20.052Z,0.50
2023-04-22T08:53:20.680Z,0.50
2023-04-22T08:54:20.293Z,0.51
2023-04-22T08:55:20.358Z,0.51
2023-04-22T08:56:20.580Z,0.50
2023-04-22T08:57:20.480Z,0.52
2023-04-22T08:58:20.533Z,0.52
2023-04-22T08:59:20.613Z,0.51
2023-04-22T09:00:20.790Z,0.59
2023-04-22T09:01:20.785Z,0.59
2023-04-22T09:02:20.816Z,0.53
2023-04-22T09:03:20.974Z,0.58
2023-04-22T09:04:21.052Z,0.54
2023-04-22T09:05:20.953Z,0.54
2023-04-22T09:06:21.029Z,0.56
2023-04-22T09:07:21.083Z,0.57
2023-04-22T09:08:21.139Z,0.58
2023-04-22T09:09:21.218Z,0.56
2023-04-22T09:10:21.276Z,0.51
2023-04-22T09:11:21.341Z,0.53
2023-04-22T09:12:21.400Z,0.53
2023-04-22T09:13:21.471Z,0.52
2023-04-22T09:14:21.534Z,0.60
2023-04-22T09:15:21.585Z,0.60
2023-04-22T09:16:21.690Z,0.54
2023-04-22T09:17:21.704Z,0.50
2023-04-22T09:18:21.744Z,0.52
2023-04-22T09:19:21.798Z,0.54
2023-04-22T09:20:21.858Z,0.52
2023-04-22T09:21:21.909Z,0.53
2023-04-22T09:22:21.961Z,0.57
2023-04-22T09:23:22.014Z,0.57
2023-04-22T09:24:22.082Z,0.56
2023-04-22T09:25:22.131Z,0.52
2023-04-22T09:26:22.185Z,0.50
2023-04-22T09:27:22.232Z,0.51
2023-04-22T09:28:22.282Z,0.52
2023-04-22T09:29:22.337Z,0.53
2023-04-22T09:30:22.387Z,0.53
2023-04-22T09:31:22.472Z,0.56
2023-04-22T09:32:23.139Z,0.56
2023-04-22T09:33:22.542Z,0.53
2023-04-22T09:34:22.596Z,0.52
2023-04-22T09:35:22.636Z,0.55
2023-04-22T09:36:22.679Z,0.53
2023-04-22T09:37:22.729Z,0.55
2023-04-22T09:38:22.767Z,0.55
2023-04-22T09:39:22.826Z,0.54
2023-04-22T09:40:22.860Z,0.51
2023-04-22T09:41:22.910Z,0.52
2023-04-22T09:42:22.951Z,0.54
2023-04-22T09:43:22.991Z,0.56
2023-04-22T09:44:23.027Z,0.56
2023-04-22T09:45:23.078Z,0.59
2023-04-22T09:46:23.332Z,0.59
2023-04-22T09:47:23.188Z,0.60
2023-04-22T09:48:23.261Z,0.59
2023-04-22T09:49:23.313Z,0.62
2023-04-22T09:50:23.378Z,0.69
2023-04-22T09:51:23.469Z,0.68
2023-04-22T09:52:23.486Z,0.57
2023-04-22T09:53:23.538Z,0.56
2023-04-22T09:54:23.615Z,0.60
2023-04-22T09:55:23.666Z,0.64
2023-04-22T09:56:23.737Z,0.67
2023-04-22T09:57:23.811Z,0.63
2023-04-22T09:58:24.045Z,0.64
2023-04-22T09:59:23.875Z,0.64
2023-04-22T10:00:23.906Z,0.57
2023-04-22T10:01:24.057Z,0.58
2023-04-22T10:02:24.119Z,0.62
2023-04-22T10:03:24.172Z,0.66
2023-04-22T10:04:24.297Z,0.65
2023-04-22T10:05:24.275Z,0.58
2023-04-22T10:06:24.363Z,0.59
2023-04-22T10:07:24.436Z,0.68
2023-04-22T10:08:24.506Z,0.71
2023-04-22T10:09:24.605Z,0.64
2023-04-22T10:10:24.667Z,0.59
2023-04-22T10:11:24.723Z,0.56
2023-04-22T10:12:32.864Z,0.58
2023-04-22T10:13:24.835Z,0.58
2023-04-22T10:14:24.846Z,0.58
2023-04-22T10:15:26.857Z,0.59
2023-04-22T10:16:24.877Z,0.58
2023-04-22T10:17:24.880Z,0.58
2023-04-22T10:18:24.877Z,0.59
2023-04-22T10:19:24.889Z,0.62
2023-04-22T10:20:24.925Z,0.64
2023-04-22T10:21:26.271Z,0.65
2023-04-22T10:22:24.927Z,0.62
2023-04-22T10:23:24.956Z,0.59
2023-04-22T10:24:25.026Z,0.59
2023-04-22T10:25:25.099Z,0.56
2023-04-22T10:26:25.175Z,0.57
2023-04-22T10:27:25.241Z,0.59
2023-04-22T10:28:25.310Z,0.56
2023-04-22T10:29:25.325Z,0.58
2023-04-22T10:30:25.338Z,0.60
2023-04-22T10:31:25.398Z,0.55
2023-04-22T10:32:25.396Z,0.56
2023-04-22T10:33:25.388Z,0.56
2023-04-22T10:34:25.411Z,0.54
2023-04-22T10:35:25.424Z,0.51
2023-04-22T10:36:25.475Z,0.52
2023-04-22T10:37:25.476Z,0.55
2023-04-22T10:38:25.497Z,0.56
2023-04-22T10:39:25.514Z,0.50
2023-04-22T10:40:25.549Z,0.51
2023-04-22T10:41:25.572Z,0.51
2023-04-22T10:42:25.603Z,0.55
2023-04-22T10:43:25.637Z,0.53
2023-04-22T10:44:25.678Z,0.51
2023-04-22T10:45:25.730Z,0.53
2023-04-22T10:46:25.774Z,0.53
2023-04-22T10:47:25.833Z,0.54
2023-04-22T10:48:25.792Z,0.53
2023-04-22T10:49:25.814Z,0.59
2023-04-22T10:50:25.830Z,0.58
2023-04-22T10:51:25.821Z,0.55
2023-04-22T10:52:25.868Z,0.57
2023-04-22T10:53:25.858Z,0.58
2023-04-22T10:54:26.935Z,0.58
2023-04-22T10:55:25.892Z,0.58
2023-04-22T10:56:25.906Z,0.55
2023-04-22T10:57:25.915Z,0.53
2023-04-22T10:58:25.932Z,0.53
2023-04-22T10:59:25.932Z,0.51
2023-04-22T11:00:25.941Z,0.53
2023-04-22T11:01:25.971Z,0.54
2023-04-22T11:02:26.058Z,0.57
2023-04-22T11:03:26.137Z,0.54
2023-04-22T11:04:26.022Z,0.59
2023-04-22T11:05:26.390Z,0.58
2023-04-22T11:06:25.990Z,0.50
2023-04-22T11:07:26.002Z,0.50
2023-04-22T11:08:26.028Z,0.55
2023-04-22T11:09:26.016Z,0.55
2023-04-22T11:10:26.031Z,0.52
2023-04-22T11:11:26.033Z,0.51
2023-04-22T11:12:26.060Z,0.53
2023-04-22T11:13:26.056Z,0.53
2023-04-22T11:14:26.067Z,0.55
2023-04-22T11:15:26.070Z,0.62
2023-04-22T11:16:26.109Z,0.62
2023-04-22T11:17:26.112Z,0.61
2023-04-22T11:18:26.120Z,0.57
2023-04-22T11:19:26.100Z,0.56
2023-04-22T11:20:26.118Z,0.56
2023-04-22T11:21:26.124Z,0.58
2023-04-22T11:22:26.168Z,0.55
2023-04-22T11:23:26.132Z,0.60
2023-04-22T11:24:26.159Z,0.56
2023-04-22T11:25:26.156Z,0.56
2023-04-22T11:26:26.164Z,0.59
2023-04-22T11:27:26.147Z,0.56
2023-04-22T11:28:26.160Z,0.55
2023-04-22T11:29:26.158Z,0.59
2023-04-22T11:30:26.169Z,0.64
2023-04-22T11:31:26.181Z,0.61
2023-04-22T11:32:26.169Z,0.57
2023-04-22T11:33:26.173Z,0.57
2023-04-22T11:34:26.174Z,0.57
2023-04-22T11:35:26.188Z,0.56
2023-04-22T11:36:26.187Z,0.57
2023-04-22T11:37:26.189Z,0.61
2023-04-22T11:38:26.220Z,0.59
2023-04-22T11:39:26.241Z,0.56
2023-04-22T11:40:29.917Z,0.56
2023-04-22T11:41:26.246Z,0.56
2023-04-22T11:42:26.252Z,0.56
2023-04-22T11:43:26.246Z,0.56
2023-04-22T11:44:26.246Z,0.57
2023-04-22T11:45:26.235Z,0.56
2023-04-22T11:46:26.266Z,0.57
2023-04-22T11:47:26.247Z,0.55
2023-04-22T11:48:26.244Z,0.56
2023-04-22T11:49:26.238Z,0.56
2023-04-22T11:50:26.256Z,0.58
2023-04-22T11:51:26.246Z,0.57
2023-04-22T11:52:26.252Z,0.57
2023-04-22T11:53:26.242Z,0.55
2023-04-22T11:54:26.240Z,0.57
2023-04-22T11:55:26.240Z,0.55
2023-04-22T11:56:26.264Z,0.51
2023-04-22T11:57:26.249Z,0.52
2023-04-22T11:58:26.239Z,0.51
2023-04-22T11:59:26.242Z,0.50
2023-04-22T12:00:26.238Z,0.51
2023-04-22T12:01:26.259Z,0.55
2023-04-22T12:02:26.366Z,0.58
2023-04-22T12:03:26.494Z,0.55
2023-04-22T12:04:26.244Z,0.58
2023-04-22T12:05:26.259Z,0.63
2023-04-22T12:06:26.249Z,0.60
2023-04-22T12:07:26.257Z,0.61
2023-04-22T12:08:26.260Z,0.60
2023-04-22T12:09:26.260Z,0.61
2023-04-22T12:10:26.266Z,0.56
2023-04-22T12:11:26.279Z,0.57
2023-04-22T12:12:26.309Z,0.55
2023-04-22T12:13:26.312Z,0.59
2023-04-22T12:14:26.297Z,0.59
2023-04-22T12:15:27.141Z,0.61
2023-04-22T12:16:26.317Z,0.58
2023-04-22T12:17:26.398Z,0.55
2023-04-22T12:18:26.324Z,0.57
2023-04-22T12:19:26.342Z,0.59
2023-04-22T12:20:26.356Z,0.56
2023-04-22T12:21:26.371Z,0.56
2023-04-22T12:22:26.396Z,0.62
2023-04-22T12:23:26.402Z,0.58
2023-04-22T12:24:26.424Z,0.54
2023-04-22T12:25:26.477Z,0.56
2023-04-22T12:26:27.270Z,0.57
2023-04-22T12:27:26.542Z,0.53
2023-04-22T12:28:26.597Z,0.52
2023-04-22T12:29:26.590Z,0.52
2023-04-22T12:30:26.599Z,0.56
2023-04-22T12:31:26.694Z,0.58
2023-04-22T12:32:26.632Z,0.58
2023-04-22T12:33:26.707Z,0.61
2023-04-22T12:34:26.696Z,0.61
2023-04-22T12:35:26.707Z,0.62
2023-04-22T12:36:26.719Z,0.61
2023-04-22T12:37:26.746Z,0.63
2023-04-22T12:38:26.845Z,0.59
2023-04-22T12:39:26.803Z,0.59
2023-04-22T12:40:26.827Z,0.55
2023-04-22T12:41:26.838Z,0.56
2023-04-22T12:42:26.858Z,0.61
2023-04-22T12:43:26.896Z,0.64
2023-04-22T12:44:26.937Z,0.58
2023-04-22T12:45:26.931Z,0.58
2023-04-22T12:46:26.945Z,0.63
2023-04-22T12:47:26.982Z,0.60
2023-04-22T12:48:26.961Z,0.55
2023-04-22T12:49:26.980Z,0.53
2023-04-22T12:50:26.987Z,0.58
2023-04-22T12:51:27.170Z,0.61
2023-04-22T12:52:27.014Z,0.61
2023-04-22T12:53:27.053Z,0.60
2023-04-22T12:54:27.052Z,0.59
2023-04-22T12:55:27.068Z,0.57
2023-04-22T12:56:27.107Z,0.56
2023-04-22T12:57:27.098Z,0.61
2023-04-22T12:58:27.111Z,0.65
2023-04-22T12:59:27.106Z,0.56
2023-04-22T13:00:27.141Z,0.54
2023-04-22T13:01:27.207Z,0.55
2023-04-22T13:02:27.262Z,0.58
2023-04-22T13:03:27.332Z,0.54
2023-04-22T13:04:27.313Z,0.56
2023-04-22T13:05:27.170Z,0.57
2023-04-22T13:06:27.207Z,0.53
2023-04-22T13:07:27.216Z,0.53
2023-04-22T13:08:27.227Z,0.57
2023-04-22T13:09:27.238Z,0.50
2023-04-22T13:10:27.241Z,0.52
2023-04-22T13:11:27.259Z,0.51
2023-04-22T13:12:27.250Z,0.53
2023-04-22T13:13:27.259Z,0.57
2023-04-22T13:14:27.261Z,0.58
2023-04-22T13:15:27.289Z,0.62
2023-04-22T13:16:27.346Z,0.65
2023-04-22T13:17:27.329Z,0.66
2023-04-22T13:18:27.319Z,0.59
2023-04-22T13:19:27.328Z,0.62